Austin, Arkansas
Current Conditions -  °F | °C
As of 8:58 PM on Saturday 24 Jan 2015 (Local Time) from KLRF Reporting Station
Clear Clear  
Wind Chill:   Ceiling: Unl
Heat Index:   Visibility: 10mi
Dew Point: -1°   Wind: 2mph
Humidity: 67%   Direction: 270°W
Pressure: 29.92"   Gusts: NA
Location:  35°N, 91.98°W
Report Text: KLRF 250258Z AUTO 27002KT 10SM CLR 05/M01 A2992 RMK AO2 SLP136 T00471009 50002
Loading
Personal Weather Stations






























Interactive Weather Map New forecast layout! Learn more

10-Day Weather Forecast

Advertisements
Track Severe Weather on mobile